createdAt,value
2018-06-03T00:00:46.529Z,100872.75
2018-06-03T00:03:14.639Z,100874.98
2018-06-03T00:05:42.736Z,100873.40
2018-06-03T00:08:10.824Z,100872.72
2018-06-03T00:10:38.896Z,100873.01
2018-06-03T00:13:06.980Z,100879.62
2018-06-03T00:15:35.028Z,100882.78
2018-06-03T00:18:03.112Z,100881.12
2018-06-03T00:20:43.060Z,100878.75
2018-06-03T00:23:11.121Z,100877.69
2018-06-03T00:25:39.187Z,100879.69
2018-06-03T00:28:07.266Z,100878.48
2018-06-03T00:30:35.341Z,100878.80
2018-06-03T00:33:03.428Z,100881.17
2018-06-03T00:35:32.984Z,100876.40
2018-06-03T00:38:01.098Z,100885.00
2018-06-03T00:40:29.227Z,100885.23
2018-06-03T00:42:57.228Z,100882.39
2018-06-03T00:45:25.313Z,100877.87
2018-06-03T00:47:53.392Z,100879.52
2018-06-03T00:50:21.443Z,100877.33
2018-06-03T00:52:49.550Z,100880.30
2018-06-03T00:55:17.586Z,100880.98
2018-06-03T00:57:45.704Z,100875.87
2018-06-03T01:00:13.796Z,100870.51
2018-06-03T01:02:41.844Z,100873.34
2018-06-03T01:05:09.915Z,100871.95
2018-06-03T01:07:37.979Z,100870.83
2018-06-03T01:10:06.064Z,100872.66
2018-06-03T01:12:34.208Z,100869.30
2018-06-03T01:15:02.269Z,100863.84
2018-06-03T01:17:30.341Z,100860.91
2018-06-03T01:19:58.458Z,100862.96
2018-06-03T01:22:33.039Z,100863.16
2018-06-03T01:25:01.107Z,100850.86
2018-06-03T01:27:29.144Z,100847.52
2018-06-03T01:29:57.208Z,100851.76
2018-06-03T01:32:25.313Z,100851.60
2018-06-03T01:34:53.380Z,100853.73
2018-06-03T01:39:55.947Z,100845.80
2018-06-03T01:42:24.004Z,100846.73
2018-06-03T01:44:52.088Z,100846.99
2018-06-03T01:47:20.142Z,100845.33
2018-06-03T01:49:48.200Z,100839.96
2018-06-03T01:52:16.263Z,100837.39
2018-06-03T01:54:44.327Z,100834.44
2018-06-03T01:57:12.379Z,100837.72
2018-06-03T01:59:40.492Z,100835.15
2018-06-03T02:02:08.640Z,100835.41
2018-06-03T02:04:36.721Z,100835.66
2018-06-03T02:07:04.792Z,100832.73
2018-06-03T02:09:32.857Z,100831.28
2018-06-03T02:12:00.925Z,100832.76
2018-06-03T02:14:28.976Z,100830.39
2018-06-03T02:16:57.064Z,100833.00
2018-06-03T02:19:25.127Z,100826.87
2018-06-03T02:21:53.187Z,100820.35
2018-06-03T02:24:21.273Z,100818.13
2018-06-03T02:26:49.330Z,100823.23
2018-06-03T02:29:17.409Z,100825.11
2018-06-03T02:31:45.460Z,100822.00
2018-06-03T02:34:13.526Z,100821.51
2018-06-03T02:36:41.624Z,100828.47
2018-06-03T02:39:09.691Z,100825.98
2018-06-03T02:41:37.765Z,100828.66
2018-06-03T02:44:05.844Z,100827.63
2018-06-03T02:46:33.923Z,100828.30
2018-06-03T02:49:01.986Z,100830.88
2018-06-03T02:51:30.062Z,100831.91
2018-06-03T02:53:58.131Z,100832.64
2018-06-03T02:56:26.192Z,100830.39
2018-06-03T02:58:54.280Z,100831.02
2018-06-03T03:01:22.417Z,100823.16
2018-06-03T03:03:50.464Z,100828.22
2018-06-03T03:06:18.540Z,100820.05
2018-06-03T03:08:46.601Z,100823.78
2018-06-03T03:11:14.676Z,100832.37
2018-06-03T03:13:42.767Z,100832.88
2018-06-03T03:16:10.837Z,100832.88
2018-06-03T03:18:38.902Z,100835.80
2018-06-03T03:21:07.000Z,100838.15
2018-06-03T03:23:35.083Z,100841.16
2018-06-03T03:26:03.167Z,100837.73
2018-06-03T03:28:31.255Z,100838.36
2018-06-03T03:30:59.337Z,100839.70
2018-06-03T03:33:27.382Z,100839.70
2018-06-03T03:35:55.462Z,100843.50
2018-06-03T03:38:23.510Z,100841.20
2018-06-03T03:40:51.589Z,100839.34
2018-06-03T03:43:19.640Z,100841.41
2018-06-03T03:45:47.721Z,100844.39
2018-06-03T03:48:15.780Z,100839.22
2018-06-03T03:50:43.847Z,100840.98
2018-06-03T03:53:11.924Z,100841.20
2018-06-03T03:55:39.991Z,100843.67
2018-06-03T03:58:08.073Z,100846.69
2018-06-03T04:00:36.132Z,100848.31
2018-06-03T04:03:04.196Z,100834.94
2018-06-03T04:05:32.267Z,100837.92
2018-06-03T04:08:00.375Z,100841.68
2018-06-03T04:10:28.432Z,100838.66
2018-06-03T04:12:56.509Z,100841.91
2018-06-03T04:15:24.557Z,100834.63
2018-06-03T04:17:52.655Z,100842.70
2018-06-03T04:20:20.748Z,100836.67
2018-06-03T04:22:48.873Z,100840.92
2018-06-03T04:25:17.159Z,100843.07
2018-06-03T04:27:45.318Z,100849.69
2018-06-03T04:30:13.413Z,100846.38
2018-06-03T04:32:41.495Z,100846.47
2018-06-03T04:35:09.560Z,100850.72
2018-06-03T04:37:37.619Z,100852.84
2018-06-03T04:40:05.703Z,100855.98
2018-06-03T04:42:33.777Z,100854.98
2018-06-03T04:45:01.840Z,100861.59
2018-06-03T04:47:29.903Z,100862.47
2018-06-03T04:49:57.941Z,100862.95
2018-06-03T04:52:26.047Z,100861.67
2018-06-03T04:54:54.101Z,100864.42
2018-06-03T04:57:22.171Z,100865.64
2018-06-03T04:59:50.215Z,100866.20
2018-06-03T05:02:18.287Z,100869.48
2018-06-03T05:04:46.354Z,100873.67
2018-06-03T05:07:14.420Z,100876.77
2018-06-03T05:09:42.491Z,100875.34
2018-06-03T05:12:10.566Z,100877.37
2018-06-03T05:14:38.603Z,100874.17
2018-06-03T05:17:06.668Z,100880.41
2018-06-03T05:19:34.709Z,100871.17
2018-06-03T05:22:02.768Z,100876.58
2018-06-03T05:24:30.890Z,100875.71
2018-06-03T05:26:58.950Z,100876.14
2018-06-03T05:29:27.031Z,100878.84
2018-06-03T05:31:55.124Z,100874.73
2018-06-03T05:34:23.180Z,100876.49
2018-06-03T05:36:51.336Z,100873.38
2018-06-03T05:39:19.396Z,100871.45
2018-06-03T05:41:47.453Z,100869.50
2018-06-03T05:44:15.563Z,100873.25
2018-06-03T05:46:43.632Z,100880.67
2018-06-03T05:49:11.773Z,100880.55
2018-06-03T05:51:39.873Z,100887.66
2018-06-03T05:54:07.963Z,100885.34
2018-06-03T05:56:36.123Z,100881.41
2018-06-03T05:59:04.240Z,100893.05
2018-06-03T06:01:32.279Z,100886.05
2018-06-03T06:04:00.343Z,100887.55
2018-06-03T06:06:28.414Z,100888.47
2018-06-03T06:08:56.522Z,100899.34
2018-06-03T06:11:24.576Z,100898.17
2018-06-03T06:13:52.669Z,100894.47
2018-06-03T06:16:20.722Z,100891.36
2018-06-03T06:18:48.783Z,100889.99
2018-06-03T06:21:16.869Z,100896.67
2018-06-03T06:23:44.982Z,100896.07
2018-06-03T06:26:13.060Z,100888.75
2018-06-03T06:28:41.157Z,100895.97
2018-06-03T06:31:09.225Z,100891.06
2018-06-03T06:33:37.334Z,100891.50
2018-06-03T06:36:05.453Z,100889.41
2018-06-03T06:38:33.699Z,100894.17
2018-06-03T06:41:01.799Z,100884.03
2018-06-03T06:43:29.867Z,100884.77
2018-06-03T06:45:57.944Z,100883.15
2018-06-03T06:48:26.020Z,100892.97
2018-06-03T06:50:54.099Z,100893.71
2018-06-03T06:53:22.164Z,100895.75
2018-06-03T06:55:50.243Z,100903.38
2018-06-03T06:58:18.324Z,100904.47
2018-06-03T07:00:46.403Z,100904.77
2018-06-03T07:03:14.473Z,100898.29
2018-06-03T07:05:42.544Z,100895.41
2018-06-03T07:08:10.616Z,100890.23
2018-06-03T07:10:38.667Z,100897.42
2018-06-03T07:13:06.794Z,100894.52
2018-06-03T07:15:34.808Z,100893.82
2018-06-03T07:18:02.881Z,100887.33
2018-06-03T07:20:31.181Z,100894.41
2018-06-03T07:22:59.263Z,100899.27
2018-06-03T07:25:27.313Z,100892.27
2018-06-03T07:27:55.385Z,100894.93
2018-06-03T07:30:23.474Z,100886.36
2018-06-03T07:32:51.576Z,100887.49
2018-06-03T07:35:19.696Z,100891.64
2018-06-03T07:37:47.779Z,100884.53
2018-06-03T07:40:15.874Z,100887.11
2018-06-03T07:42:43.936Z,100876.95
2018-06-03T07:45:12.032Z,100868.25
2018-06-03T07:47:40.112Z,100858.51
2018-06-03T07:50:08.213Z,100875.06
2018-06-03T07:52:36.321Z,100876.63
2018-06-03T07:55:04.406Z,100877.19
2018-06-03T07:57:32.474Z,100876.14
2018-06-03T08:00:01.465Z,100868.25
2018-06-03T08:02:29.539Z,100863.64
2018-06-03T08:04:57.613Z,100859.20
2018-06-03T08:07:25.687Z,100862.56
2018-06-03T08:09:53.832Z,100855.23
2018-06-03T08:12:21.973Z,100862.12
2018-06-03T08:14:50.028Z,100866.55
2018-06-03T08:17:18.078Z,100859.47
2018-06-03T08:19:46.116Z,100859.30
2018-06-03T08:22:14.192Z,100859.88
2018-06-03T08:24:42.258Z,100855.89
2018-06-03T08:27:10.328Z,100858.44
2018-06-03T08:29:38.397Z,100859.86
2018-06-03T08:32:06.498Z,100864.84
2018-06-03T08:34:34.564Z,100854.23
2018-06-03T08:37:02.621Z,100855.90
2018-06-03T08:39:30.713Z,100849.64
2018-06-03T08:41:58.797Z,100846.06
2018-06-03T08:44:26.898Z,100846.62
2018-06-03T08:46:54.955Z,100850.20
2018-06-03T08:49:23.029Z,100848.55
2018-06-03T08:51:51.094Z,100845.25
2018-06-03T08:54:19.180Z,100852.96
2018-06-03T08:56:47.271Z,100854.61
2018-06-03T08:59:15.344Z,100849.02
2018-06-03T09:01:43.413Z,100847.72
2018-06-03T09:04:11.476Z,100847.48
2018-06-03T09:06:39.515Z,100844.23
2018-06-03T09:09:07.657Z,100853.55
2018-06-03T09:11:35.732Z,100856.55
2018-06-03T09:14:03.807Z,100846.70
2018-06-03T09:16:31.883Z,100846.95
2018-06-03T09:18:59.973Z,100839.59
2018-06-03T09:21:28.163Z,100840.14
2018-06-03T09:23:56.257Z,100838.47
2018-06-03T09:26:24.319Z,100843.14
2018-06-03T09:28:52.386Z,100836.03
2018-06-03T09:31:20.487Z,100837.94
2018-06-03T09:33:48.604Z,100836.03
2018-06-03T09:36:16.631Z,100830.57
2018-06-03T09:38:44.699Z,100828.39
2018-06-03T09:41:12.860Z,100814.42
2018-06-03T09:43:40.947Z,100815.53
2018-06-03T09:46:09.003Z,100807.56
2018-06-03T09:48:37.076Z,100806.20
2018-06-03T09:51:05.151Z,100804.55
2018-06-03T09:53:33.221Z,100802.95
2018-06-03T09:56:01.313Z,100796.39
2018-06-03T09:58:29.417Z,100794.73
2018-06-03T10:00:57.500Z,100792.55
2018-06-03T10:03:25.538Z,100794.98
2018-06-03T10:05:53.703Z,100790.05
2018-06-03T10:08:21.787Z,100787.88
2018-06-03T10:10:49.858Z,100788.42
2018-06-03T10:13:17.939Z,100788.96
2018-06-03T10:15:45.989Z,100780.98
2018-06-03T10:18:14.036Z,100778.78
2018-06-03T10:20:42.140Z,100783.38
2018-06-03T10:23:10.201Z,100776.23
2018-06-03T10:25:38.267Z,100769.69
2018-06-03T10:28:06.308Z,100770.42
2018-06-03T10:30:34.440Z,100776.42
2018-06-03T10:33:02.500Z,100773.96
2018-06-03T10:35:30.575Z,100767.64
2018-06-03T10:37:58.643Z,100765.19
2018-06-03T10:40:26.725Z,100763.77
2018-06-03T10:42:54.820Z,100756.55
2018-06-03T10:45:22.903Z,100758.55
2018-06-03T10:47:50.974Z,100761.05
2018-06-03T10:50:19.032Z,100749.49
2018-06-03T10:52:47.152Z,100753.11
2018-06-03T10:55:15.254Z,100749.01
2018-06-03T10:57:43.307Z,100754.44
2018-06-03T11:00:11.366Z,100756.39
2018-06-03T11:02:39.431Z,100750.17
2018-06-03T11:05:07.517Z,100753.88
2018-06-03T11:07:35.592Z,100748.40
2018-06-03T11:10:03.963Z,100750.03
2018-06-03T11:12:32.011Z,100742.25
2018-06-03T11:15:00.143Z,100742.26
2018-06-03T11:17:28.265Z,100739.69
2018-06-03T11:19:56.336Z,100741.92
2018-06-03T11:22:24.408Z,100737.22
2018-06-03T11:24:52.510Z,100726.63
2018-06-03T11:27:20.889Z,100734.97
2018-06-03T11:29:49.136Z,100727.91
2018-06-03T11:32:17.187Z,100721.95
2018-06-03T11:34:45.255Z,100731.45
2018-06-03T11:37:13.338Z,100726.31
2018-06-03T11:39:41.412Z,100724.09
2018-06-03T11:42:09.511Z,100730.12
2018-06-03T11:44:37.716Z,100728.38
2018-06-03T11:47:05.810Z,100721.41
2018-06-03T11:49:33.890Z,100717.72
2018-06-03T11:52:01.949Z,100719.41
2018-06-03T11:54:30.017Z,100716.92
2018-06-03T11:57:02.504Z,100711.88
2018-06-03T11:59:47.407Z,100708.08
2018-06-03T12:02:17.793Z,100713.82
2018-06-03T12:04:45.906Z,100707.18
2018-06-03T12:07:13.964Z,100704.19
2018-06-03T12:09:42.119Z,100700.00
2018-06-03T12:12:10.561Z,100704.30
2018-06-03T12:14:38.683Z,100704.47
2018-06-03T12:17:06.751Z,100697.46
2018-06-03T12:19:35.005Z,100698.55
2018-06-03T12:22:03.091Z,100704.14
2018-06-03T12:24:31.156Z,100698.37
2018-06-03T12:26:59.251Z,100695.43
2018-06-03T12:29:27.320Z,100693.88
2018-06-03T12:31:55.384Z,100688.01
2018-06-03T12:34:23.479Z,100684.33
2018-06-03T12:36:51.597Z,100683.20
2018-06-03T12:39:19.761Z,100676.05
2018-06-03T12:41:47.881Z,100679.04
2018-06-03T12:44:15.899Z,100674.06
2018-06-03T12:46:44.071Z,100676.32
2018-06-03T12:49:12.128Z,100672.98
2018-06-03T12:51:40.245Z,100669.06
2018-06-03T12:54:08.336Z,100666.84
2018-06-03T12:56:36.484Z,100663.48
2018-06-03T12:59:04.563Z,100656.86
2018-06-03T13:01:32.686Z,100658.70
2018-06-03T13:04:00.805Z,100662.14
2018-06-03T13:06:28.957Z,100655.93
2018-06-03T13:08:58.024Z,100657.47
2018-06-03T13:11:26.103Z,100662.26
2018-06-03T13:13:54.183Z,100655.09
2018-06-03T13:16:22.259Z,100651.09
2018-06-03T13:18:50.330Z,100643.09
2018-06-03T13:21:18.418Z,100642.00
2018-06-03T13:23:46.764Z,100649.80
2018-06-03T13:26:14.839Z,100647.05
2018-06-03T13:28:42.956Z,100631.83
2018-06-03T13:31:12.888Z,100633.66
2018-06-03T13:33:41.272Z,100628.35
2018-06-03T13:36:10.538Z,100625.72
2018-06-03T13:38:41.036Z,100631.11
2018-06-03T13:41:09.370Z,100627.11
2018-06-03T13:43:38.252Z,100618.20
2018-06-03T13:46:11.071Z,100613.08
2018-06-03T13:48:41.677Z,100611.71
2018-06-03T13:51:11.973Z,100615.30
2018-06-03T13:53:42.975Z,100604.20
2018-06-03T13:56:14.084Z,100602.98
2018-06-03T13:58:45.798Z,100594.77
2018-06-03T14:01:18.267Z,100591.60
2018-06-03T14:03:47.046Z,100590.69
2018-06-03T14:06:16.663Z,100586.41
2018-06-03T14:08:45.478Z,100582.03
2018-06-03T14:11:16.075Z,100582.87
2018-06-03T14:13:45.446Z,100581.14
2018-06-03T14:16:14.339Z,100577.62
2018-06-03T14:18:43.008Z,100578.14
2018-06-03T14:21:13.590Z,100567.19
2018-06-03T14:23:43.408Z,100570.33
2018-06-03T14:26:12.029Z,100566.98
2018-06-03T14:28:42.037Z,100566.21
2018-06-03T14:31:11.295Z,100565.32
2018-06-03T14:33:41.626Z,100562.73
2018-06-03T14:36:10.682Z,100564.81
2018-06-03T14:38:39.973Z,100559.11
2018-06-03T14:41:11.259Z,100559.11
2018-06-03T14:43:40.057Z,100553.97
2018-06-03T14:46:10.784Z,100553.61
2018-06-03T14:48:40.111Z,100553.03
2018-06-03T14:51:09.455Z,100545.02
2018-06-03T14:53:37.520Z,100540.30
2018-06-03T14:56:05.575Z,100539.95
2018-06-03T14:58:33.592Z,100527.50
2018-06-03T15:01:01.669Z,100525.54
2018-06-03T15:03:29.757Z,100526.62
2018-06-03T15:05:57.863Z,100525.45
2018-06-03T15:08:26.065Z,100510.97
2018-06-03T15:10:54.135Z,100509.55
2018-06-03T15:13:22.220Z,100507.11
2018-06-03T15:15:50.317Z,100501.93
2018-06-03T15:18:18.388Z,100505.23
2018-06-03T15:20:46.468Z,100503.39
2018-06-03T15:23:15.375Z,100502.68
2018-06-03T15:25:43.551Z,100501.70
2018-06-03T15:28:11.653Z,100497.38
2018-06-03T15:30:39.725Z,100498.91
2018-06-03T15:33:07.861Z,100496.41
2018-06-03T15:35:35.908Z,100491.64
2018-06-03T15:38:03.976Z,100492.66
2018-06-03T15:40:32.267Z,100496.59
2018-06-03T15:43:00.419Z,100490.94
2018-06-03T15:45:28.506Z,100490.38
2018-06-03T15:47:56.615Z,100483.52
2018-06-03T15:50:24.703Z,100488.48
2018-06-03T15:52:52.768Z,100484.72
2018-06-03T15:55:20.841Z,100482.38
2018-06-03T15:57:48.912Z,100481.70
2018-06-03T16:00:17.645Z,100485.73
2018-06-03T16:02:45.745Z,100481.62
2018-06-03T16:05:14.379Z,100480.48
2018-06-03T16:07:42.452Z,100481.16
2018-06-03T16:10:10.612Z,100480.55
2018-06-03T16:12:38.701Z,100478.56
2018-06-03T16:15:06.760Z,100474.33
2018-06-03T16:17:34.872Z,100476.83
2018-06-03T16:20:03.031Z,100468.97
2018-06-03T16:22:31.092Z,100463.59
2018-06-03T16:24:59.207Z,100462.92
2018-06-03T16:27:27.301Z,100455.50
2018-06-03T16:29:55.376Z,100452.34
2018-06-03T16:32:23.460Z,100449.36
2018-06-03T16:34:51.519Z,100454.63
2018-06-03T16:37:20.215Z,100450.64
2018-06-03T16:39:48.284Z,100449.59
2018-06-03T16:42:16.333Z,100456.15
2018-06-03T16:44:44.441Z,100450.78
2018-06-03T16:47:12.531Z,100440.02
2018-06-03T16:49:40.591Z,100450.54
2018-06-03T16:52:08.667Z,100443.98
2018-06-03T16:54:36.794Z,100449.61
2018-06-03T16:57:04.914Z,100449.28
2018-06-03T16:59:33.107Z,100442.70
2018-06-03T17:02:01.183Z,100436.83
2018-06-03T17:04:35.864Z,100442.53
2018-06-03T17:07:03.961Z,100441.16
2018-06-03T17:09:32.049Z,100440.11
2018-06-03T17:12:00.183Z,100436.54
2018-06-03T17:14:28.248Z,100432.94
2018-06-03T17:16:56.370Z,100432.69
2018-06-03T17:19:24.435Z,100436.62
2018-06-03T17:21:52.504Z,100428.74
2018-06-03T17:24:20.572Z,100425.45
2018-06-03T17:26:48.678Z,100427.19
2018-06-03T17:29:17.239Z,100422.67
2018-06-03T17:31:45.326Z,100418.52
2018-06-03T17:34:13.386Z,100421.31
2018-06-03T17:36:41.431Z,100419.89
2018-06-03T17:39:09.520Z,100416.62
2018-06-03T17:41:37.589Z,100418.16
2018-06-03T17:44:05.684Z,100414.38
2018-06-03T17:46:33.754Z,100412.00
2018-06-03T17:49:01.846Z,100407.52
2018-06-03T17:51:29.901Z,100403.55
2018-06-03T17:53:57.946Z,100404.42
2018-06-03T17:56:26.011Z,100408.20
2018-06-03T17:58:54.164Z,100400.33
2018-06-03T18:01:22.256Z,100402.44
2018-06-03T18:03:50.349Z,100401.42
2018-06-03T18:06:18.400Z,100406.47
2018-06-03T18:08:46.470Z,100413.92
2018-06-03T18:11:14.571Z,100415.61
2018-06-03T18:13:42.651Z,100414.16
2018-06-03T18:16:10.719Z,100424.88
2018-06-03T18:18:38.792Z,100420.67
2018-06-03T18:21:06.850Z,100419.25
2018-06-03T18:23:34.979Z,100426.13
2018-06-03T18:26:03.070Z,100421.19
2018-06-03T18:28:31.160Z,100423.03
2018-06-03T18:30:59.247Z,100423.98
2018-06-03T18:33:27.357Z,100417.16
2018-06-03T18:35:55.467Z,100418.60
2018-06-03T18:38:24.485Z,100415.38
2018-06-03T18:40:52.588Z,100413.14
2018-06-03T18:43:20.671Z,100413.14
2018-06-03T18:45:48.832Z,100404.88
2018-06-03T18:48:16.908Z,100406.84
2018-06-03T18:50:45.036Z,100409.93
2018-06-03T18:53:13.145Z,100407.88
2018-06-03T18:55:41.202Z,100406.87
2018-06-03T18:58:09.277Z,100397.41
2018-06-03T19:00:37.345Z,100401.00
2018-06-03T19:03:05.449Z,100400.05
2018-06-03T19:05:33.568Z,100401.59
2018-06-03T19:08:01.763Z,100394.23
2018-06-03T19:10:30.067Z,100391.08
2018-06-03T19:12:58.195Z,100389.52
2018-06-03T19:15:26.289Z,100389.95
2018-06-03T19:17:54.419Z,100391.14
2018-06-03T19:20:22.496Z,100393.20
2018-06-03T19:22:50.597Z,100393.18
2018-06-03T19:25:18.692Z,100396.77
2018-06-03T19:27:46.897Z,100395.73
2018-06-03T19:30:14.991Z,100395.77
2018-06-03T19:32:43.116Z,100402.45
2018-06-03T19:35:11.165Z,100394.89
2018-06-03T19:37:39.340Z,100402.19
2018-06-03T19:40:07.531Z,100402.31
2018-06-03T19:42:35.735Z,100403.40
2018-06-03T19:45:03.803Z,100405.91
2018-06-03T19:47:31.860Z,100404.62
2018-06-03T19:49:59.958Z,100411.53
2018-06-03T19:52:28.094Z,100413.80
2018-06-03T19:54:56.220Z,100412.78
2018-06-03T19:57:24.305Z,100413.97
2018-06-03T19:59:53.445Z,100409.94
2018-06-03T20:02:21.961Z,100411.09
2018-06-03T20:04:50.700Z,100418.84
2018-06-03T20:07:18.889Z,100415.34
2018-06-03T20:09:47.074Z,100418.16
2018-06-03T20:12:15.365Z,100413.84
2018-06-03T20:14:43.634Z,100422.59
2018-06-03T20:17:11.906Z,100429.48
2018-06-03T20:19:40.215Z,100429.78
2018-06-03T20:22:08.622Z,100431.52
2018-06-03T20:24:39.109Z,100422.47
2018-06-03T20:27:07.324Z,100423.33
2018-06-03T20:29:35.821Z,100421.20
2018-06-03T20:32:04.096Z,100420.37
2018-06-03T20:34:36.013Z,100425.64
2018-06-03T20:37:04.264Z,100427.02
2018-06-03T20:39:32.542Z,100420.77
2018-06-03T20:42:01.868Z,100419.70
2018-06-03T20:44:30.153Z,100418.12
2018-06-03T20:46:58.290Z,100429.87
2018-06-03T20:49:28.652Z,100432.63
2018-06-03T20:51:56.869Z,100433.45
2018-06-03T20:54:25.053Z,100427.73
2018-06-03T20:56:53.236Z,100423.07
2018-06-03T20:59:21.719Z,100428.81
2018-06-03T21:01:49.920Z,100429.09
2018-06-03T21:04:19.790Z,100422.55
2018-06-03T21:06:48.298Z,100428.28
2018-06-03T21:09:17.861Z,100430.48
2018-06-03T21:11:46.408Z,100432.11
2018-06-03T21:14:14.580Z,100431.29
2018-06-03T21:16:42.831Z,100431.01
2018-06-03T21:19:11.698Z,100427.21
2018-06-03T21:21:39.906Z,100437.32
2018-06-03T21:24:08.157Z,100433.48
2018-06-03T21:26:36.313Z,100438.68
2018-06-03T21:29:04.469Z,100442.22
2018-06-03T21:31:32.772Z,100440.02
2018-06-03T21:34:00.935Z,100446.31
2018-06-03T21:36:29.314Z,100437.56
2018-06-03T21:38:57.473Z,100435.39
2018-06-03T21:41:25.612Z,100443.03
2018-06-03T21:43:53.841Z,100443.03
2018-06-03T21:46:22.117Z,100431.02
2018-06-03T21:48:50.282Z,100426.67
2018-06-03T21:51:18.576Z,100440.58
2018-06-03T21:53:46.786Z,100441.38
2018-06-03T21:56:15.029Z,100432.34
2018-06-03T21:58:43.232Z,100440.52
2018-06-03T22:01:11.431Z,100436.97
2018-06-03T22:03:39.985Z,100435.06
2018-06-03T22:06:08.142Z,100434.80
2018-06-03T22:08:36.321Z,100442.12
2018-06-03T22:11:04.563Z,100436.14
2018-06-03T22:13:32.727Z,100449.80
2018-06-03T22:16:03.642Z,100442.12
2018-06-03T22:18:31.865Z,100428.77
2018-06-03T22:21:00.258Z,100442.14
2018-06-03T22:23:28.593Z,100442.10
2018-06-03T22:25:56.664Z,100433.38
2018-06-03T22:28:24.746Z,100441.30
2018-06-03T22:30:52.850Z,100438.84
2018-06-03T22:33:20.936Z,100438.01
2018-06-03T22:35:49.006Z,100445.06
2018-06-03T22:38:17.071Z,100443.16
2018-06-03T22:40:45.155Z,100444.23
2018-06-03T22:43:13.198Z,100446.12
2018-06-03T22:45:41.292Z,100450.20
2018-06-03T22:48:09.364Z,100444.19
2018-06-03T22:50:37.440Z,100444.19
2018-06-03T22:53:05.547Z,100446.01
2018-06-03T22:55:33.676Z,100441.14
2018-06-03T22:58:01.821Z,100437.00
2018-06-03T23:00:30.704Z,100438.36
2018-06-03T23:03:04.066Z,100428.30
2018-06-03T23:05:32.147Z,100427.19
2018-06-03T23:08:00.293Z,100426.89
2018-06-03T23:10:28.369Z,100417.38
2018-06-03T23:12:56.477Z,100427.68
2018-06-03T23:15:24.663Z,100427.11
2018-06-03T23:17:52.712Z,100424.70
2018-06-03T23:20:20.767Z,100423.34
2018-06-03T23:22:48.852Z,100412.98
2018-06-03T23:25:16.927Z,100417.30
2018-06-03T23:27:45.035Z,100404.48
2018-06-03T23:30:13.126Z,100406.16
2018-06-03T23:32:41.206Z,100408.84
2018-06-03T23:35:09.329Z,100404.18
2018-06-03T23:37:37.385Z,100407.72
2018-06-03T23:40:05.543Z,100401.72
2018-06-03T23:42:33.656Z,100402.33
2018-06-03T23:45:01.791Z,100403.09
2018-06-03T23:47:29.838Z,100403.64
2018-06-03T23:49:58.005Z,100401.20
2018-06-03T23:52:26.152Z,100397.94
2018-06-03T23:54:54.250Z,100390.31
2018-06-03T23:57:22.375Z,100396.27
2018-06-03T23:59:50.476Z,100394.61
